Time;durP1;ratioP1;P1;durP2;ratioP2;P2;SDS_P1;SDS_P2;PMS_P1;PMS_P2;Temp;Humidity;BMP_temperature;BMP_pressure;BME280_temperature;BME280_humidity;BME280_pressure;Samples;Min_cycle;Max_cycle;Signal;HPM_P1;HPM_P2
2023/09/03 00:25:17;;;;;;;16.70;10.90;;;;;;;;;;8262266;28;20129;-92
2023/09/03 01:04:14;;;;;;;18.17;11.45;;;;;;;;;;8335311;28;20051;-96
2023/09/03 01:20:21;;;;;;;16.30;11.63;;;;;;;;;;8369520;28;20051;-94
2023/09/03 01:29:59;;;;;;;18.40;11.85;;;;;;;;;;8231066;28;20126;-96
2023/09/03 01:34:07;;;;;;;17.25;11.43;;;;;;;;;;8267439;28;20054;-96
2023/09/03 01:38:14;;;;;;;17.67;11.77;;;;;;;;;;8377110;28;20053;-95
2023/09/03 01:47:41;;;;;;;15.43;11.15;;;;;;;;;;8390530;28;20055;-96
2023/09/03 01:51:58;;;;;;;14.30;10.10;;;;;;;;;;8391396;28;20091;-95
2023/09/03 01:56:03;;;;;;;16.53;10.13;;;;;;;;;;8391689;28;20057;-91
2023/09/03 02:00:12;;;;;;;15.02;9.60;;;;;;;;;;8410283;28;20040;-88
2023/09/03 02:09:16;;;;;;;17.25;11.43;;;;;;;;;;8371379;28;20131;-95
2023/09/03 02:13:44;;;;;;;20.88;12.30;;;;;;;;;;8370925;28;20145;-91
2023/09/03 02:17:47;;;;;;;27.70;14.52;;;;;;;;;;8370881;28;20045;-91
2023/09/03 02:22:02;;;;;;;23.92;15.05;;;;;;;;;;8354156;28;20053;-95
2023/09/03 02:31:22;;;;;;;21.38;12.90;;;;;;;;;;8335145;28;20064;-94
2023/09/03 02:40:42;;;;;;;21.08;11.60;;;;;;;;;;8369745;28;20045;-95
2023/09/03 02:45:13;;;;;;;;;;;;;;;;;;;;;
2023/09/03 02:50:09;;;;;;;17.08;11.48;;;;;;;;;;8368544;28;20131;-95
2023/09/03 03:32:14;;;;;;;16.42;10.35;;;;;;;;;;8398406;28;20067;-95
2023/09/03 03:36:19;;;;;;;15.32;9.65;;;;;;;;;;8383433;28;20044;-95
2023/09/03 03:40:22;;;;;;;15.50;9.82;;;;;;;;;;8390611;28;20072;-92
2023/09/03 03:49:33;;;;;;;16.25;10.90;;;;;;;;;;8398329;28;20140;-94
2023/09/03 04:36:14;;;;;;;18.60;11.90;;;;;;;;;;8387101;28;20126;-94
2023/09/03 04:40:45;;;;;;;;;;;;;;;;;;;;;
2023/09/03 04:45:09;;;;;;;20.65;13.00;;;;;;;;;;8388896;28;20491;-93
2023/09/03 04:49:44;;;;;;;20.60;13.70;;;;;;;;;;8400907;28;20091;-94
2023/09/03 05:03:30;;;;;;;17.85;12.77;;;;;;;;;;8382218;22;20650;-96
2023/09/03 05:08:22;;;;;;;16.42;13.13;;;;;;;;;;8273103;28;20054;-93
2023/09/03 05:12:51;;;;;;;16.92;12.55;;;;;;;;;;8249090;28;20066;-90
2023/09/03 05:17:00;;;;;;;11.63;8.35;;;;;;;;;;8268684;28;20650;-91
2023/09/03 05:25:29;;;;;;;15.23;9.50;;;;;;;;;;8186909;28;20058;-93
2023/09/03 05:29:39;;;;;;;14.95;10.15;;;;;;;;;;8219285;28;20063;-95
2023/09/03 05:33:59;;;;;;;12.75;8.88;;;;;;;;;;8236669;28;20086;-94
2023/09/03 05:38:02;;;;;;;12.68;8.25;;;;;;;;;;8241140;28;20066;-94
2023/09/03 05:42:06;;;;;;;12.80;8.00;;;;;;;;;;8241405;28;20059;-95
2023/09/03 05:46:11;;;;;;;9.52;7.10;;;;;;;;;;8228357;28;20089;-96
2023/09/03 05:50:14;;;;;;;14.73;9.13;;;;;;;;;;8246292;28;20137;-96
2023/09/03 05:54:17;;;;;;;12.90;8.75;;;;;;;;;;8244705;28;20057;-92
2023/09/03 05:58:20;;;;;;;12.13;8.90;;;;;;;;;;8227656;28;20137;-92
2023/09/03 06:02:42;;;;;;;12.25;9.40;;;;;;;;;;8317886;28;20125;-93
2023/09/03 06:06:54;;;;;;;16.15;7.88;;;;;;;;;;8357627;28;20413;-95
2023/09/03 06:15:47;;;;;;;13.27;7.63;;;;;;;;;;8375818;28;20132;-94
2023/09/03 06:19:52;;;;;;;10.77;7.82;;;;;;;;;;8362064;28;20057;-94
2023/09/03 06:23:54;;;;;;;10.27;7.53;;;;;;;;;;8365969;28;20060;-96
2023/09/03 06:27:58;;;;;;;10.40;7.80;;;;;;;;;;8363649;28;20128;-96
2023/09/03 06:32:24;;;;;;;11.80;7.05;;;;;;;;;;8366948;28;20060;-96
2023/09/03 06:36:29;;;;;;;12.48;7.22;;;;;;;;;;8369392;28;20049;-91
2023/09/03 06:40:32;;;;;;;10.85;7.45;;;;;;;;;;8349504;28;20052;-95
2023/09/03 06:44:43;;;;;;;12.00;7.72;;;;;;;;;;8363248;28;20068;-92
2023/09/03 06:48:46;;;;;;;7.88;6.30;;;;;;;;;;8360904;28;20057;-95
2023/09/03 06:52:53;;;;;;;8.82;5.90;;;;;;;;;;8333392;28;20056;-95
2023/09/03 06:56:57;;;;;;;10.38;5.80;;;;;;;;;;8369981;28;20056;-91
2023/09/03 07:01:02;;;;;;;8.93;4.97;;;;;;;;;;8371245;28;20065;-94
2023/09/03 07:05:06;;;;;;;9.55;4.88;;;;;;;;;;8329984;28;20445;-93
2023/09/03 07:09:11;;;;;;;8.43;4.80;;;;;;;;;;8339772;28;20484;-93
2023/09/03 07:13:14;;;;;;;7.88;4.65;;;;;;;;;;8353710;28;20084;-93
2023/09/03 07:17:17;;;;;;;7.47;4.70;;;;;;;;;;8358619;28;20059;-95
2023/09/03 07:21:19;;;;;;;6.60;4.63;;;;;;;;;;8365879;28;20059;-91
2023/09/03 07:25:26;;;;;;;7.55;4.38;;;;;;;;;;8346866;28;20059;-91
2023/09/03 07:29:28;;;;;;;6.13;4.35;;;;;;;;;;8339176;28;20049;-91
2023/09/03 07:33:33;;;;;;;5.20;3.75;;;;;;;;;;8360764;28;20114;-91
2023/09/03 07:37:36;;;;;;;8.25;3.85;;;;;;;;;;8352534;28;20114;-93
2023/09/03 07:41:40;;;;;;;5.22;3.42;;;;;;;;;;8341713;28;20092;-93
2023/09/03 07:45:45;;;;;;;4.43;3.20;;;;;;;;;;8331175;28;20056;-92
2023/09/03 07:49:48;;;;;;;5.95;3.30;;;;;;;;;;8367487;28;20053;-94
2023/09/03 07:53:51;;;;;;;6.03;3.10;;;;;;;;;;8367942;28;20077;-94
2023/09/03 07:57:56;;;;;;;5.03;2.90;;;;;;;;;;8378771;28;20053;-92
2023/09/03 08:02:00;;;;;;;3.92;2.83;;;;;;;;;;8366884;28;20056;-91
2023/09/03 08:06:03;;;;;;;5.03;3.00;;;;;;;;;;8320688;28;20057;-95
2023/09/03 08:10:11;;;;;;;5.38;2.80;;;;;;;;;;8314847;28;20144;-92
2023/09/03 08:14:15;;;;;;;7.28;3.35;;;;;;;;;;8307834;28;20707;-93
2023/09/03 08:18:19;;;;;;;4.97;2.85;;;;;;;;;;8325372;28;20414;-93
2023/09/03 08:22:22;;;;;;;6.43;2.75;;;;;;;;;;8304044;28;20053;-93
2023/09/03 08:26:25;;;;;;;4.28;2.78;;;;;;;;;;8330347;28;20053;-93
2023/09/03 08:30:47;;;;;;;3.88;2.53;;;;;;;;;;8331948;28;20053;-92
2023/09/03 08:35:07;;;;;;;4.55;2.80;;;;;;;;;;8318470;28;20124;-92
2023/09/03 08:39:10;;;;;;;4.63;2.88;;;;;;;;;;8320763;28;20140;-91
2023/09/03 08:43:16;;;;;;;5.68;3.20;;;;;;;;;;8293795;28;20069;-93
2023/09/03 08:47:25;;;;;;;5.00;3.00;;;;;;;;;;8310860;28;20068;-92
2023/09/03 08:51:28;;;;;;;5.28;3.28;;;;;;;;;;8308735;28;20056;-91
2023/09/03 08:55:33;;;;;;;6.63;3.40;;;;;;;;;;8298234;28;20053;-92
2023/09/03 08:59:36;;;;;;;7.05;3.20;;;;;;;;;;8329215;28;20084;-92
2023/09/03 09:03:43;;;;;;;6.75;2.90;;;;;;;;;;8360888;28;20053;-95
2023/09/03 09:07:56;;;;;;;4.75;2.80;;;;;;;;;;8360971;28;20053;-91
2023/09/03 09:12:13;;;;;;;6.00;2.60;;;;;;;;;;8349453;28;20049;-92
2023/09/03 09:16:16;;;;;;;4.55;2.58;;;;;;;;;;8352461;28;20068;-93
2023/09/03 09:20:49;;;;;;;4.43;2.83;;;;;;;;;;8341172;28;20144;-94
2023/09/03 09:25:03;;;;;;;4.82;2.92;;;;;;;;;;8338236;28;20067;-94
2023/09/03 09:29:10;;;;;;;4.60;2.47;;;;;;;;;;8331593;28;20060;-95
2023/09/03 09:33:49;;;;;;;5.95;2.75;;;;;;;;;;8350069;28;20606;-95
2023/09/03 09:37:55;;;;;;;4.10;2.13;;;;;;;;;;8383636;28;20060;-96
2023/09/03 09:42:13;;;;;;;5.25;2.30;;;;;;;;;;8365024;28;20415;-90
2023/09/03 09:46:26;;;;;;;4.78;2.15;;;;;;;;;;8326083;28;20057;-95
2023/09/03 09:50:38;;;;;;;8.05;2.30;;;;;;;;;;8334390;28;20099;-96
2023/09/03 09:54:50;;;;;;;2.72;2.10;;;;;;;;;;8326369;28;20060;-91
2023/09/03 09:58:57;;;;;;;5.60;2.33;;;;;;;;;;8338515;28;20088;-90
2023/09/03 10:03:02;;;;;;;3.35;2.20;;;;;;;;;;8351113;28;20065;-92
2023/09/03 10:07:06;;;;;;;3.00;2.13;;;;;;;;;;8350772;28;20045;-94
2023/09/03 10:11:10;;;;;;;3.42;2.05;;;;;;;;;;8333275;28;20789;-93
2023/09/03 10:15:15;;;;;;;3.80;2.38;;;;;;;;;;8340254;28;20061;-91
2023/09/03 10:19:20;;;;;;;3.88;2.17;;;;;;;;;;8338054;28;20080;-91
2023/09/03 10:23:50;;;;;;;3.70;2.30;;;;;;;;;;8344622;28;20053;-92
2023/09/03 10:28:27;;;;;;;7.28;2.70;;;;;;;;;;8331070;28;20424;-92
2023/09/03 10:32:36;;;;;;;3.38;2.40;;;;;;;;;;8349301;28;20052;-93
2023/09/03 10:37:09;;;;;;;5.27;2.57;;;;;;;;;;8352974;28;20567;-93
2023/09/03 10:41:36;;;;;;;4.03;2.70;;;;;;;;;;8413911;22;20136;-94
2023/09/03 10:45:59;;;;;;;5.88;2.90;;;;;;;;;;8327645;28;20448;-92
2023/09/03 10:50:21;;;;;;;6.38;2.60;;;;;;;;;;8312839;28;20064;-94
2023/09/03 10:54:42;;;;;;;7.80;2.42;;;;;;;;;;8329635;28;20148;-89
2023/09/03 10:58:58;;;;;;;3.92;2.40;;;;;;;;;;8315984;28;20061;-93
2023/09/03 11:03:24;;;;;;;3.92;2.10;;;;;;;;;;8332718;28;20056;-95
2023/09/03 11:07:35;;;;;;;3.40;2.08;;;;;;;;;;8336305;28;20417;-94
2023/09/03 11:11:39;;;;;;;7.18;2.13;;;;;;;;;;8320796;28;20472;-91
2023/09/03 11:15:55;;;;;;;2.85;2.03;;;;;;;;;;8327621;28;20594;-90
2023/09/03 11:19:59;;;;;;;4.97;2.10;;;;;;;;;;8331273;28;20049;-90
2023/09/03 11:24:06;;;;;;;3.83;2.35;;;;;;;;;;8332378;28;20091;-90
2023/09/03 11:28:12;;;;;;;4.00;2.17;;;;;;;;;;8314318;28;20056;-90
2023/09/03 11:32:16;;;;;;;3.58;2.42;;;;;;;;;;8298202;28;20061;-89
2023/09/03 11:36:21;;;;;;;8.70;2.70;;;;;;;;;;8332831;28;20405;-90
2023/09/03 11:40:29;;;;;;;9.32;3.83;;;;;;;;;;8332387;28;20057;-90
2023/09/03 11:44:34;;;;;;;6.78;3.03;;;;;;;;;;8314572;28;20057;-90
2023/09/03 11:48:39;;;;;;;8.52;3.20;;;;;;;;;;8315403;28;20057;-90
2023/09/03 11:52:48;;;;;;;7.88;2.47;;;;;;;;;;8319339;28;20053;-91
2023/09/03 11:56:56;;;;;;;6.07;2.40;;;;;;;;;;8331814;28;20042;-90
2023/09/03 12:01:00;;;;;;;5.82;2.40;;;;;;;;;;8331987;28;20045;-90
2023/09/03 12:05:05;;;;;;;3.83;2.35;;;;;;;;;;8331863;28;20516;-90
2023/09/03 12:09:10;;;;;;;3.97;2.30;;;;;;;;;;8314614;28;20457;-90
2023/09/03 12:13:34;;;;;;;4.18;2.17;;;;;;;;;;8314134;28;20064;-90
2023/09/03 12:17:38;;;;;;;4.00;2.20;;;;;;;;;;8331798;28;20148;-90
2023/09/03 12:21:41;;;;;;;3.63;2.15;;;;;;;;;;8314600;28;20053;-91
2023/09/03 12:25:46;;;;;;;3.13;2.13;;;;;;;;;;8331158;28;20148;-90
2023/09/03 12:29:56;;;;;;;3.53;2.00;;;;;;;;;;8313972;28;20401;-90
2023/09/03 12:34:01;;;;;;;2.97;2.10;;;;;;;;;;8331368;28;20057;-91
2023/09/03 12:38:05;;;;;;;4.55;1.95;;;;;;;;;;8329739;28;20068;-91
2023/09/03 12:42:10;;;;;;;3.60;2.00;;;;;;;;;;8312639;28;20057;-90
2023/09/03 12:46:16;;;;;;;3.17;1.92;;;;;;;;;;8313437;28;20049;-90
2023/09/03 12:50:21;;;;;;;3.33;2.22;;;;;;;;;;8326987;28;20050;-90
2023/09/03 12:54:24;;;;;;;3.47;2.03;;;;;;;;;;8332645;28;20104;-90
2023/09/03 12:58:29;;;;;;;5.28;2.10;;;;;;;;;;8332579;28;20050;-90
2023/09/03 13:02:35;;;;;;;3.50;2.13;;;;;;;;;;8330541;28;20589;-90
2023/09/03 13:06:40;;;;;;;2.65;1.77;;;;;;;;;;8312095;28;20077;-89
2023/09/03 13:10:44;;;;;;;3.80;2.22;;;;;;;;;;8329729;28;20410;-89
2023/09/03 13:14:49;;;;;;;3.05;1.95;;;;;;;;;;8312237;28;20057;-90
2023/09/03 13:18:59;;;;;;;3.38;2.20;;;;;;;;;;8329858;28;20136;-90
2023/09/03 13:23:04;;;;;;;2.85;1.88;;;;;;;;;;8329426;28;20136;-90
2023/09/03 13:27:09;;;;;;;4.45;1.90;;;;;;;;;;8312692;28;20050;-90
2023/09/03 13:31:13;;;;;;;5.10;2.00;;;;;;;;;;8329663;28;20387;-90
2023/09/03 13:35:22;;;;;;;3.28;2.20;;;;;;;;;;8329793;28;20509;-90
2023/09/03 13:39:30;;;;;;;2.58;1.80;;;;;;;;;;8311983;28;20123;-89
2023/09/03 13:43:34;;;;;;;3.80;2.70;;;;;;;;;;8312349;28;20127;-90
2023/09/03 13:47:38;;;;;;;3.92;2.40;;;;;;;;;;8312675;28;20126;-90
2023/09/03 13:51:44;;;;;;;4.53;2.00;;;;;;;;;;8333010;28;20053;-90
2023/09/03 13:55:49;;;;;;;3.60;2.20;;;;;;;;;;8336708;28;20048;-90
2023/09/03 13:59:54;;;;;;;4.80;2.22;;;;;;;;;;8338282;28;20088;-90
2023/09/03 14:03:58;;;;;;;3.25;2.00;;;;;;;;;;8338542;28;20111;-89
2023/09/03 14:08:06;;;;;;;4.25;2.20;;;;;;;;;;8320876;28;20071;-91
2023/09/03 14:12:12;;;;;;;5.60;2.22;;;;;;;;;;8337201;28;20053;-90
2023/09/03 14:16:17;;;;;;;3.22;1.98;;;;;;;;;;8337784;28;20060;-91
2023/09/03 14:20:21;;;;;;;3.78;2.05;;;;;;;;;;8320885;28;20513;-90
2023/09/03 14:24:29;;;;;;;2.42;1.90;;;;;;;;;;8332001;28;20102;-90
2023/09/03 14:28:33;;;;;;;2.25;1.80;;;;;;;;;;8351597;28;20096;-90
2023/09/03 14:32:39;;;;;;;3.47;2.05;;;;;;;;;;8364020;28;20053;-91
2023/09/03 14:36:48;;;;;;;4.65;2.20;;;;;;;;;;8372498;28;20037;-89
2023/09/03 14:40:54;;;;;;;4.53;1.90;;;;;;;;;;8365115;28;20029;-90
2023/09/03 14:45:00;;;;;;;4.80;2.05;;;;;;;;;;8376840;28;20072;-94
2023/09/03 14:49:09;;;;;;;3.95;2.20;;;;;;;;;;8348899;28;20061;-94
2023/09/03 14:53:14;;;;;;;3.35;2.22;;;;;;;;;;8316573;28;20053;-95
2023/09/03 14:57:28;;;;;;;3.50;1.98;;;;;;;;;;8340815;28;20057;-91
2023/09/03 15:01:58;;;;;;;4.07;2.20;;;;;;;;;;8300683;28;20132;-95
2023/09/03 15:06:03;;;;;;;4.10;2.00;;;;;;;;;;8326509;28;20502;-95
2023/09/03 15:10:18;;;;;;;3.30;2.17;;;;;;;;;;8330763;28;20060;-92
2023/09/03 15:14:29;;;;;;;4.68;2.30;;;;;;;;;;8315553;28;20139;-95
2023/09/03 15:18:38;;;;;;;4.85;1.83;;;;;;;;;;8341763;28;20041;-89
2023/09/03 15:22:43;;;;;;;3.78;2.00;;;;;;;;;;8335130;28;20054;-94
2023/09/03 15:26:47;;;;;;;3.28;2.05;;;;;;;;;;8309397;28;20429;-92
2023/09/03 15:30:53;;;;;;;2.72;1.65;;;;;;;;;;8337809;28;20087;-95
2023/09/03 15:34:57;;;;;;;3.05;2.03;;;;;;;;;;8334391;28;20053;-95
2023/09/03 15:39:02;;;;;;;3.13;2.33;;;;;;;;;;8320271;28;20056;-94
2023/09/03 15:43:06;;;;;;;5.05;2.38;;;;;;;;;;8333453;28;20064;-95
2023/09/03 15:47:13;;;;;;;3.35;1.92;;;;;;;;;;8333769;28;20061;-92
2023/09/03 15:51:18;;;;;;;3.65;2.13;;;;;;;;;;8324401;28;20501;-93
2023/09/03 15:55:23;;;;;;;4.75;2.30;;;;;;;;;;8334907;28;20057;-95
2023/09/03 15:59:28;;;;;;;3.70;1.98;;;;;;;;;;8337300;28;20076;-95
2023/09/03 16:03:35;;;;;;;2.55;2.00;;;;;;;;;;8335168;28;20047;-92
2023/09/03 16:07:42;;;;;;;3.67;2.00;;;;;;;;;;8309552;28;20058;-94
2023/09/03 16:11:46;;;;;;;4.20;2.30;;;;;;;;;;8331237;28;20128;-95
2023/09/03 16:15:53;;;;;;;4.50;2.15;;;;;;;;;;8330591;28;20041;-92
2023/09/03 16:20:01;;;;;;;3.75;2.42;;;;;;;;;;8326799;28;20416;-92
2023/09/03 16:24:06;;;;;;;3.22;2.40;;;;;;;;;;8315308;28;20084;-94
2023/09/03 16:28:10;;;;;;;5.13;2.67;;;;;;;;;;8313957;28;20144;-92
2023/09/03 16:32:16;;;;;;;6.70;3.20;;;;;;;;;;8331927;28;20089;-94
2023/09/03 16:36:33;;;;;;;5.80;3.38;;;;;;;;;;8314470;28;20064;-93
2023/09/03 16:40:37;;;;;;;10.77;3.92;;;;;;;;;;8332138;28;20124;-93
2023/09/03 16:44:43;;;;;;;7.28;3.15;;;;;;;;;;8329404;28;20147;-92
2023/09/03 16:48:47;;;;;;;6.15;3.10;;;;;;;;;;8331524;28;20100;-93
2023/09/03 16:52:53;;;;;;;5.90;3.80;;;;;;;;;;8331412;28;20053;-92
2023/09/03 16:56:58;;;;;;;7.38;4.57;;;;;;;;;;8314418;28;20132;-93
2023/09/03 17:01:03;;;;;;;7.43;5.90;;;;;;;;;;8314296;28;20061;-93
2023/09/03 17:05:09;;;;;;;12.93;7.88;;;;;;;;;;8318457;28;20107;-92
2023/09/03 17:09:20;;;;;;;12.25;7.03;;;;;;;;;;8313712;28;20420;-94
2023/09/03 17:13:25;;;;;;;14.25;8.20;;;;;;;;;;8331316;28;20049;-94
2023/09/03 17:17:32;;;;;;;16.80;9.77;;;;;;;;;;8315279;28;20080;-94
2023/09/03 17:21:37;;;;;;;9.63;6.53;;;;;;;;;;8316187;28;20505;-94
2023/09/03 17:25:45;;;;;;;9.02;5.57;;;;;;;;;;8319884;28;20061;-93
2023/09/03 17:29:50;;;;;;;27.90;16.27;;;;;;;;;;8332089;28;20054;-93
2023/09/03 17:33:54;;;;;;;26.88;15.50;;;;;;;;;;8316378;28;20478;-94
2023/09/03 17:38:01;;;;;;;9.63;5.88;;;;;;;;;;8314551;28;20057;-93
2023/09/03 17:42:09;;;;;;;8.05;5.85;;;;;;;;;;8313576;28;20061;-94
2023/09/03 17:46:14;;;;;;;8.82;6.15;;;;;;;;;;8318985;28;20088;-94
2023/09/03 17:50:18;;;;;;;10.68;6.07;;;;;;;;;;8313081;28;20169;-91
2023/09/03 17:58:51;;;;;;;18.55;9.88;;;;;;;;;;8324508;28;20052;-90
2023/09/03 18:02:57;;;;;;;51.05;39.75;;;;;;;;;;8327400;28;20453;-92
2023/09/03 18:07:04;;;;;;;71.32;49.85;;;;;;;;;;8308979;28;20084;-91
2023/09/03 18:11:16;;;;;;;63.65;49.15;;;;;;;;;;8306546;28;20065;-94
2023/09/03 18:15:37;;;;;;;51.35;36.42;;;;;;;;;;8339551;28;20061;-94
2023/09/03 18:19:41;;;;;;;29.63;22.48;;;;;;;;;;8321267;28;20454;-92
2023/09/03 18:23:53;;;;;;;28.95;24.45;;;;;;;;;;8328842;28;20053;-90
2023/09/03 18:28:06;;;;;;;28.58;22.77;;;;;;;;;;8324002;28;20046;-95
2023/09/03 18:32:13;;;;;;;54.53;37.03;;;;;;;;;;8321017;28;20058;-93
2023/09/03 18:40:39;;;;;;;24.73;18.42;;;;;;;;;;8332754;28;20100;-94
2023/09/03 18:44:46;;;;;;;15.70;10.45;;;;;;;;;;8273315;28;20582;-90
2023/09/03 18:49:01;;;;;;;11.52;7.47;;;;;;;;;;8302798;28;20414;-93
2023/09/03 18:53:06;;;;;;;9.35;7.00;;;;;;;;;;8304392;28;20054;-96
2023/09/03 18:57:14;;;;;;;10.00;7.07;;;;;;;;;;8306319;28;20651;-93
2023/09/03 19:01:26;;;;;;;13.18;7.15;;;;;;;;;;8311865;28;20050;-96
2023/09/03 19:05:40;;;;;;;10.15;6.85;;;;;;;;;;8308938;28;20057;-95
2023/09/03 19:09:50;;;;;;;11.30;6.95;;;;;;;;;;8306442;28;20058;-96
2023/09/03 19:13:57;;;;;;;13.07;6.78;;;;;;;;;;8307175;28;20057;-93
2023/09/03 19:18:06;;;;;;;10.43;6.75;;;;;;;;;;8310719;28;20453;-93
2023/09/03 19:22:12;;;;;;;13.05;7.28;;;;;;;;;;8289722;28;20073;-95
2023/09/03 19:26:17;;;;;;;14.55;10.02;;;;;;;;;;8311197;28;20110;-94
2023/09/03 19:30:23;;;;;;;19.25;12.70;;;;;;;;;;8301590;28;20497;-95
2023/09/03 19:34:28;;;;;;;15.82;9.35;;;;;;;;;;8304313;28;21002;-95
2023/09/03 19:38:37;;;;;;;11.70;8.15;;;;;;;;;;8295733;28;20073;-94
2023/09/03 19:42:46;;;;;;;11.55;7.22;;;;;;;;;;8327721;28;20060;-95
2023/09/03 19:46:56;;;;;;;9.38;6.72;;;;;;;;;;8279872;28;20133;-92
2023/09/03 19:51:02;;;;;;;13.32;6.90;;;;;;;;;;8342900;28;20049;-89
2023/09/03 19:55:11;;;;;;;8.35;5.57;;;;;;;;;;8339746;28;20046;-94
2023/09/03 19:59:16;;;;;;;9.32;5.38;;;;;;;;;;8342904;28;20065;-91
2023/09/03 20:03:22;;;;;;;12.27;6.38;;;;;;;;;;8331759;28;20053;-93
2023/09/03 20:07:27;;;;;;;8.57;5.97;;;;;;;;;;8326549;28;20049;-95
2023/09/03 20:11:45;;;;;;;9.20;5.75;;;;;;;;;;8338583;28;20517;-94
2023/09/03 20:15:59;;;;;;;8.90;6.30;;;;;;;;;;8339368;28;20061;-89
2023/09/03 20:20:06;;;;;;;9.65;5.82;;;;;;;;;;8337652;28;20505;-92
2023/09/03 20:24:11;;;;;;;10.00;6.07;;;;;;;;;;8324217;28;20053;-95
2023/09/03 20:28:29;;;;;;;11.13;6.65;;;;;;;;;;8347045;28;20049;-92
2023/09/03 20:32:51;;;;;;;9.85;6.55;;;;;;;;;;8293665;28;20057;-95
2023/09/03 20:37:17;;;;;;;10.88;6.38;;;;;;;;;;8318176;28;20050;-94
2023/09/03 20:41:26;;;;;;;8.65;5.93;;;;;;;;;;8336041;28;20046;-89
2023/09/03 20:45:35;;;;;;;11.25;6.40;;;;;;;;;;8347249;28;20053;-94
2023/09/03 20:49:39;;;;;;;12.57;6.15;;;;;;;;;;8349033;28;20501;-91
2023/09/03 20:53:44;;;;;;;9.35;5.65;;;;;;;;;;8346611;28;20104;-92
2023/09/03 20:57:49;;;;;;;10.75;6.15;;;;;;;;;;8346722;28;20495;-93
2023/09/03 21:01:56;;;;;;;8.57;5.80;;;;;;;;;;8345803;28;20088;-95
2023/09/03 21:06:02;;;;;;;10.05;6.60;;;;;;;;;;8331094;28;20050;-91
2023/09/03 21:10:08;;;;;;;10.90;6.18;;;;;;;;;;8351999;28;20053;-91
2023/09/03 21:14:11;;;;;;;9.85;6.50;;;;;;;;;;8360585;28;20079;-92
2023/09/03 21:18:16;;;;;;;11.25;6.15;;;;;;;;;;8368039;28;20069;-89
2023/09/03 21:22:19;;;;;;;11.40;5.45;;;;;;;;;;8368807;28;20064;-93
2023/09/03 21:26:23;;;;;;;9.20;5.93;;;;;;;;;;8371395;28;20064;-88
2023/09/03 21:30:26;;;;;;;9.65;6.07;;;;;;;;;;8373413;28;20064;-87
2023/09/03 21:34:30;;;;;;;8.43;5.80;;;;;;;;;;8330815;28;20187;-92
2023/09/03 21:38:33;;;;;;;9.57;6.47;;;;;;;;;;8333128;28;20084;-92
2023/09/03 21:42:37;;;;;;;9.98;6.35;;;;;;;;;;8317574;28;20053;-95
2023/09/03 21:46:39;;;;;;;12.32;6.45;;;;;;;;;;8329638;28;20480;-92
2023/09/03 21:50:43;;;;;;;9.60;5.57;;;;;;;;;;8322359;28;20062;-96
2023/09/03 21:54:47;;;;;;;8.23;5.55;;;;;;;;;;8322366;28;20394;-93
2023/09/03 21:58:50;;;;;;;10.52;6.10;;;;;;;;;;8331091;28;20045;-93
2023/09/03 22:02:53;;;;;;;7.88;5.72;;;;;;;;;;8329906;28;20127;-91
2023/09/03 22:06:59;;;;;;;8.68;5.70;;;;;;;;;;8331259;28;20053;-93
2023/09/03 22:11:03;;;;;;;9.55;5.60;;;;;;;;;;8329203;28;20050;-89
2023/09/03 22:15:07;;;;;;;8.77;5.10;;;;;;;;;;8330567;28;20080;-89
2023/09/03 22:19:13;;;;;;;6.57;4.95;;;;;;;;;;8336837;28;20102;-87
2023/09/03 22:23:32;;;;;;;8.20;5.38;;;;;;;;;;8337274;28;20132;-94
2023/09/03 22:31:51;;;;;;;8.07;5.47;;;;;;;;;;8330977;28;20058;-93
2023/09/03 22:35:54;;;;;;;8.95;5.95;;;;;;;;;;8334408;28;20053;-88
2023/09/03 22:40:00;;;;;;;7.00;5.28;;;;;;;;;;8321492;28;20084;-89
2023/09/03 22:44:03;;;;;;;8.15;5.63;;;;;;;;;;8318688;28;20053;-90
2023/09/03 22:48:14;;;;;;;7.70;5.30;;;;;;;;;;8364380;28;20057;-88
2023/09/03 22:52:48;;;;;;;8.20;5.40;;;;;;;;;;8364054;28;20058;-93
2023/09/03 22:56:55;;;;;;;6.20;4.60;;;;;;;;;;8326181;28;20062;-90
2023/09/03 23:00:59;;;;;;;9.00;5.32;;;;;;;;;;8332150;28;20050;-95
2023/09/03 23:05:02;;;;;;;8.80;5.72;;;;;;;;;;8332339;28;20049;-94
2023/09/03 23:09:06;;;;;;;10.48;5.65;;;;;;;;;;8337644;28;20080;-95
2023/09/03 23:13:10;;;;;;;7.05;5.00;;;;;;;;;;8338586;28;20057;-90
2023/09/03 23:17:13;;;;;;;7.05;5.30;;;;;;;;;;8338023;28;20058;-94
2023/09/03 23:21:40;;;;;;;10.25;4.75;;;;;;;;;;8356954;28;20096;-92
2023/09/03 23:25:46;;;;;;;6.90;5.13;;;;;;;;;;8347775;28;20057;-94
2023/09/03 23:29:51;;;;;;;10.45;5.10;;;;;;;;;;8348569;28;20482;-89
2023/09/03 23:33:54;;;;;;;9.40;5.10;;;;;;;;;;8348843;28;20071;-90
2023/09/03 23:38:03;;;;;;;10.35;5.72;;;;;;;;;;8339610;28;20050;-88
2023/09/03 23:42:07;;;;;;;7.63;5.78;;;;;;;;;;8335775;28;20131;-89
2023/09/03 23:46:12;;;;;;;7.75;5.35;;;;;;;;;;8341167;28;20053;-92
2023/09/03 23:50:15;;;;;;;7.28;4.75;;;;;;;;;;8343583;28;20084;-95
2023/09/03 23:54:19;;;;;;;8.02;5.82;;;;;;;;;;8337461;28;20421;-92
2023/09/03 23:58:33;;;;;;;8.80;5.60;;;;;;;;;;8319260;28;20136;-96
